sensor_id;sensor_type;location;lat;lon;timestamp;P1;durP1;ratioP1;P2;durP2;ratioP2
58222;SDS011;44020;50.890;15.796;2022-11-25T00:01:27;145.30;;;66.10;;
58222;SDS011;44020;50.890;15.796;2022-11-25T00:03:56;130.60;;;64.40;;
58222;SDS011;44020;50.890;15.796;2022-11-25T00:06:27;142.00;;;61.70;;
58222;SDS011;44020;50.890;15.796;2022-11-25T00:11:28;114.00;;;51.90;;
58222;SDS011;44020;50.890;15.796;2022-11-25T00:13:56;122.50;;;54.90;;
58222;SDS011;44020;50.890;15.796;2022-11-25T00:16:24;130.90;;;58.20;;
58222;SDS011;44020;50.890;15.796;2022-11-25T00:18:55;135.20;;;60.30;;
58222;SDS011;44020;50.890;15.796;2022-11-25T00:21:28;138.90;;;61.90;;
58222;SDS011;44020;50.890;15.796;2022-11-25T00:23:59;154.80;;;66.40;;
58222;SDS011;44020;50.890;15.796;2022-11-25T00:26:29;134.30;;;60.80;;
58222;SDS011;44020;50.890;15.796;2022-11-25T00:29:02;128.50;;;59.70;;
58222;SDS011;44020;50.890;15.796;2022-11-25T00:31:32;137.10;;;60.60;;
58222;SDS011;44020;50.890;15.796;2022-11-25T00:34:01;134.00;;;60.50;;
58222;SDS011;44020;50.890;15.796;2022-11-25T00:36:30;130.60;;;58.30;;
58222;SDS011;44020;50.890;15.796;2022-11-25T00:39:08;118.70;;;53.50;;
58222;SDS011;44020;50.890;15.796;2022-11-25T00:41:37;106.10;;;52.50;;
58222;SDS011;44020;50.890;15.796;2022-11-25T00:44:26;101.20;;;46.30;;
58222;SDS011;44020;50.890;15.796;2022-11-25T00:49:36;125.00;;;53.80;;
58222;SDS011;44020;50.890;15.796;2022-11-25T00:52:04;132.80;;;55.90;;
58222;SDS011;44020;50.890;15.796;2022-11-25T00:54:32;129.90;;;55.70;;
58222;SDS011;44020;50.890;15.796;2022-11-25T00:56:59;141.70;;;57.30;;
58222;SDS011;44020;50.890;15.796;2022-11-25T00:59:27;117.00;;;51.10;;
58222;SDS011;44020;50.890;15.796;2022-11-25T01:01:54;126.40;;;55.00;;
58222;SDS011;44020;50.890;15.796;2022-11-25T01:04:22;127.20;;;52.40;;
58222;SDS011;44020;50.890;15.796;2022-11-25T01:06:50;119.80;;;53.60;;
58222;SDS011;44020;50.890;15.796;2022-11-25T01:09:18;121.20;;;54.70;;
58222;SDS011;44020;50.890;15.796;2022-11-25T01:11:45;117.50;;;53.90;;
58222;SDS011;44020;50.890;15.796;2022-11-25T01:14:17;134.00;;;59.20;;
58222;SDS011;44020;50.890;15.796;2022-11-25T01:16:45;149.00;;;63.30;;
58222;SDS011;44020;50.890;15.796;2022-11-25T01:19:14;142.40;;;65.00;;
58222;SDS011;44020;50.890;15.796;2022-11-25T01:21:42;127.50;;;54.90;;
58222;SDS011;44020;50.890;15.796;2022-11-25T01:24:10;120.20;;;51.90;;
58222;SDS011;44020;50.890;15.796;2022-11-25T01:26:42;104.10;;;47.20;;
58222;SDS011;44020;50.890;15.796;2022-11-25T01:29:12;99.50;;;48.30;;
58222;SDS011;44020;50.890;15.796;2022-11-25T01:31:41;104.70;;;49.10;;
58222;SDS011;44020;50.890;15.796;2022-11-25T01:34:11;103.10;;;50.50;;
58222;SDS011;44020;50.890;15.796;2022-11-25T01:36:40;106.40;;;50.70;;
58222;SDS011;44020;50.890;15.796;2022-11-25T01:39:12;105.30;;;49.80;;
58222;SDS011;44020;50.890;15.796;2022-11-25T01:41:43;116.50;;;52.80;;
58222;SDS011;44020;50.890;15.796;2022-11-25T01:44:18;115.50;;;53.30;;
58222;SDS011;44020;50.890;15.796;2022-11-25T01:49:51;92.30;;;44.00;;
58222;SDS011;44020;50.890;15.796;2022-11-25T01:55:04;67.10;;;32.00;;
58222;SDS011;44020;50.890;15.796;2022-11-25T01:57:46;67.20;;;35.30;;
58222;SDS011;44020;50.890;15.796;2022-11-25T02:00:18;78.20;;;39.90;;
58222;SDS011;44020;50.890;15.796;2022-11-25T02:02:46;92.00;;;44.20;;
58222;SDS011;44020;50.890;15.796;2022-11-25T02:08:23;96.80;;;44.90;;
58222;SDS011;44020;50.890;15.796;2022-11-25T02:11:11;96.80;;;45.10;;
58222;SDS011;44020;50.890;15.796;2022-11-25T02:17:21;90.80;;;43.00;;
58222;SDS011;44020;50.890;15.796;2022-11-25T02:20:08;87.40;;;41.10;;
58222;SDS011;44020;50.890;15.796;2022-11-25T02:22:40;82.20;;;40.20;;
58222;SDS011;44020;50.890;15.796;2022-11-25T02:25:25;91.20;;;42.00;;
58222;SDS011;44020;50.890;15.796;2022-11-25T02:27:57;94.60;;;45.00;;
58222;SDS011;44020;50.890;15.796;2022-11-25T02:30:29;97.20;;;44.20;;
58222;SDS011;44020;50.890;15.796;2022-11-25T02:32:58;104.60;;;45.70;;
58222;SDS011;44020;50.890;15.796;2022-11-25T02:35:36;90.20;;;42.70;;
58222;SDS011;44020;50.890;15.796;2022-11-25T02:38:08;84.70;;;41.20;;
58222;SDS011;44020;50.890;15.796;2022-11-25T02:40:46;88.50;;;41.60;;
58222;SDS011;44020;50.890;15.796;2022-11-25T02:43:26;93.70;;;44.30;;
58222;SDS011;44020;50.890;15.796;2022-11-25T02:46:04;98.20;;;45.10;;
58222;SDS011;44020;50.890;15.796;2022-11-25T02:48:34;103.50;;;47.80;;
58222;SDS011;44020;50.890;15.796;2022-11-25T02:51:04;107.20;;;48.30;;
58222;SDS011;44020;50.890;15.796;2022-11-25T02:53:33;103.10;;;46.40;;
58222;SDS011;44020;50.890;15.796;2022-11-25T02:56:00;120.40;;;53.60;;
58222;SDS011;44020;50.890;15.796;2022-11-25T02:58:28;86.80;;;40.70;;
58222;SDS011;44020;50.890;15.796;2022-11-25T03:00:56;80.30;;;38.40;;
58222;SDS011;44020;50.890;15.796;2022-11-25T03:03:23;75.60;;;37.10;;
58222;SDS011;44020;50.890;15.796;2022-11-25T03:05:50;71.00;;;35.90;;
58222;SDS011;44020;50.890;15.796;2022-11-25T03:08:18;70.40;;;35.60;;
58222;SDS011;44020;50.890;15.796;2022-11-25T03:10:45;78.20;;;38.60;;
58222;SDS011;44020;50.890;15.796;2022-11-25T03:13:16;78.90;;;39.10;;
58222;SDS011;44020;50.890;15.796;2022-11-25T03:15:44;78.90;;;39.60;;
58222;SDS011;44020;50.890;15.796;2022-11-25T03:18:11;78.60;;;40.30;;
58222;SDS011;44020;50.890;15.796;2022-11-25T03:20:39;80.60;;;39.30;;
58222;SDS011;44020;50.890;15.796;2022-11-25T03:23:07;73.60;;;36.10;;
58222;SDS011;44020;50.890;15.796;2022-11-25T03:25:34;77.40;;;37.20;;
58222;SDS011;44020;50.890;15.796;2022-11-25T03:28:02;73.70;;;37.50;;
58222;SDS011;44020;50.890;15.796;2022-11-25T03:30:30;76.90;;;38.00;;
58222;SDS011;44020;50.890;15.796;2022-11-25T03:32:58;72.20;;;38.10;;
58222;SDS011;44020;50.890;15.796;2022-11-25T03:35:25;76.10;;;38.30;;
58222;SDS011;44020;50.890;15.796;2022-11-25T03:37:53;80.70;;;39.90;;
58222;SDS011;44020;50.890;15.796;2022-11-25T03:40:21;80.50;;;39.80;;
58222;SDS011;44020;50.890;15.796;2022-11-25T03:42:49;89.80;;;41.60;;
58222;SDS011;44020;50.890;15.796;2022-11-25T03:45:17;91.00;;;43.50;;
58222;SDS011;44020;50.890;15.796;2022-11-25T03:47:44;87.30;;;43.30;;
58222;SDS011;44020;50.890;15.796;2022-11-25T03:50:13;89.20;;;42.00;;
58222;SDS011;44020;50.890;15.796;2022-11-25T03:52:41;90.60;;;42.60;;
58222;SDS011;44020;50.890;15.796;2022-11-25T03:55:09;84.30;;;41.80;;
58222;SDS011;44020;50.890;15.796;2022-11-25T03:57:38;86.30;;;41.30;;
58222;SDS011;44020;50.890;15.796;2022-11-25T04:00:07;82.20;;;41.10;;
58222;SDS011;44020;50.890;15.796;2022-11-25T04:02:35;89.10;;;42.60;;
58222;SDS011;44020;50.890;15.796;2022-11-25T04:05:02;99.30;;;45.10;;
58222;SDS011;44020;50.890;15.796;2022-11-25T04:07:31;98.10;;;46.00;;
58222;SDS011;44020;50.890;15.796;2022-11-25T04:09:58;101.20;;;48.20;;
58222;SDS011;44020;50.890;15.796;2022-11-25T04:12:25;99.40;;;48.30;;
58222;SDS011;44020;50.890;15.796;2022-11-25T04:15:11;85.90;;;42.90;;
58222;SDS011;44020;50.890;15.796;2022-11-25T04:17:39;86.00;;;41.40;;
58222;SDS011;44020;50.890;15.796;2022-11-25T04:20:06;83.90;;;41.90;;
58222;SDS011;44020;50.890;15.796;2022-11-25T04:22:34;78.70;;;40.00;;
58222;SDS011;44020;50.890;15.796;2022-11-25T04:25:01;83.30;;;41.70;;
58222;SDS011;44020;50.890;15.796;2022-11-25T04:27:28;88.40;;;42.70;;
58222;SDS011;44020;50.890;15.796;2022-11-25T04:29:56;89.30;;;43.80;;
58222;SDS011;44020;50.890;15.796;2022-11-25T04:32:23;85.60;;;43.10;;
58222;SDS011;44020;50.890;15.796;2022-11-25T04:34:51;85.60;;;41.70;;
58222;SDS011;44020;50.890;15.796;2022-11-25T04:37:18;90.70;;;44.00;;
58222;SDS011;44020;50.890;15.796;2022-11-25T04:39:45;77.10;;;36.00;;
58222;SDS011;44020;50.890;15.796;2022-11-25T04:42:12;71.70;;;38.40;;
58222;SDS011;44020;50.890;15.796;2022-11-25T04:45:00;72.70;;;36.10;;
58222;SDS011;44020;50.890;15.796;2022-11-25T04:47:29;81.60;;;39.70;;
58222;SDS011;44020;50.890;15.796;2022-11-25T04:49:57;72.70;;;37.70;;
58222;SDS011;44020;50.890;15.796;2022-11-25T04:52:25;84.40;;;41.20;;
58222;SDS011;44020;50.890;15.796;2022-11-25T04:54:52;81.60;;;41.50;;
58222;SDS011;44020;50.890;15.796;2022-11-25T04:57:19;85.30;;;42.00;;
58222;SDS011;44020;50.890;15.796;2022-11-25T04:59:47;80.00;;;38.80;;
58222;SDS011;44020;50.890;15.796;2022-11-25T05:02:19;81.30;;;41.30;;
58222;SDS011;44020;50.890;15.796;2022-11-25T05:07:17;60.50;;;32.00;;
58222;SDS011;44020;50.890;15.796;2022-11-25T05:09:45;69.20;;;35.10;;
58222;SDS011;44020;50.890;15.796;2022-11-25T05:12:14;65.60;;;33.90;;
58222;SDS011;44020;50.890;15.796;2022-11-25T05:14:43;72.20;;;36.80;;
58222;SDS011;44020;50.890;15.796;2022-11-25T05:17:17;85.90;;;42.10;;
58222;SDS011;44020;50.890;15.796;2022-11-25T05:19:47;79.30;;;40.20;;
58222;SDS011;44020;50.890;15.796;2022-11-25T05:22:16;77.10;;;38.60;;
58222;SDS011;44020;50.890;15.796;2022-11-25T05:24:46;78.50;;;40.70;;
58222;SDS011;44020;50.890;15.796;2022-11-25T05:27:14;80.60;;;40.20;;
58222;SDS011;44020;50.890;15.796;2022-11-25T05:29:42;76.10;;;38.10;;
58222;SDS011;44020;50.890;15.796;2022-11-25T05:32:09;72.80;;;36.40;;
58222;SDS011;44020;50.890;15.796;2022-11-25T05:34:37;65.60;;;34.50;;
58222;SDS011;44020;50.890;15.796;2022-11-25T05:37:05;69.20;;;35.80;;
58222;SDS011;44020;50.890;15.796;2022-11-25T05:39:33;80.30;;;38.30;;
58222;SDS011;44020;50.890;15.796;2022-11-25T05:42:00;105.50;;;43.30;;
58222;SDS011;44020;50.890;15.796;2022-11-25T05:44:27;108.70;;;45.50;;
58222;SDS011;44020;50.890;15.796;2022-11-25T05:46:54;110.50;;;47.70;;
58222;SDS011;44020;50.890;15.796;2022-11-25T05:49:21;106.90;;;45.60;;
58222;SDS011;44020;50.890;15.796;2022-11-25T05:51:48;107.60;;;45.90;;
58222;SDS011;44020;50.890;15.796;2022-11-25T05:54:16;85.00;;;39.30;;
58222;SDS011;44020;50.890;15.796;2022-11-25T05:56:43;75.40;;;37.00;;
58222;SDS011;44020;50.890;15.796;2022-11-25T05:59:10;75.50;;;37.30;;
58222;SDS011;44020;50.890;15.796;2022-11-25T06:01:37;71.50;;;36.50;;
58222;SDS011;44020;50.890;15.796;2022-11-25T06:04:04;73.70;;;36.30;;
58222;SDS011;44020;50.890;15.796;2022-11-25T06:06:31;83.20;;;38.60;;
58222;SDS011;44020;50.890;15.796;2022-11-25T06:08:59;79.20;;;40.00;;
58222;SDS011;44020;50.890;15.796;2022-11-25T06:11:26;87.70;;;41.30;;
58222;SDS011;44020;50.890;15.796;2022-11-25T06:13:54;83.90;;;41.20;;
58222;SDS011;44020;50.890;15.796;2022-11-25T06:16:23;95.60;;;43.90;;
58222;SDS011;44020;50.890;15.796;2022-11-25T06:18:51;84.80;;;41.30;;
58222;SDS011;44020;50.890;15.796;2022-11-25T06:21:18;82.40;;;39.70;;
58222;SDS011;44020;50.890;15.796;2022-11-25T06:23:45;82.30;;;40.00;;
58222;SDS011;44020;50.890;15.796;2022-11-25T06:26:14;88.50;;;39.20;;
58222;SDS011;44020;50.890;15.796;2022-11-25T06:28:46;84.60;;;40.70;;
58222;SDS011;44020;50.890;15.796;2022-11-25T06:31:17;76.00;;;38.30;;
58222;SDS011;44020;50.890;15.796;2022-11-25T06:33:46;81.70;;;39.40;;
58222;SDS011;44020;50.890;15.796;2022-11-25T06:36:15;83.00;;;41.70;;
58222;SDS011;44020;50.890;15.796;2022-11-25T06:38:43;87.90;;;42.00;;
58222;SDS011;44020;50.890;15.796;2022-11-25T06:41:12;90.40;;;42.50;;
58222;SDS011;44020;50.890;15.796;2022-11-25T06:43:39;93.50;;;45.00;;
58222;SDS011;44020;50.890;15.796;2022-11-25T06:46:08;91.60;;;41.50;;
58222;SDS011;44020;50.890;15.796;2022-11-25T06:48:37;121.00;;;51.20;;
58222;SDS011;44020;50.890;15.796;2022-11-25T06:51:05;128.50;;;55.70;;
58222;SDS011;44020;50.890;15.796;2022-11-25T06:53:35;116.20;;;52.70;;
58222;SDS011;44020;50.890;15.796;2022-11-25T06:56:11;110.20;;;48.30;;
58222;SDS011;44020;50.890;15.796;2022-11-25T06:58:41;101.50;;;44.20;;
58222;SDS011;44020;50.890;15.796;2022-11-25T07:03:41;100.50;;;44.10;;
58222;SDS011;44020;50.890;15.796;2022-11-25T07:06:13;105.00;;;44.30;;
58222;SDS011;44020;50.890;15.796;2022-11-25T07:08:41;93.00;;;42.20;;
58222;SDS011;44020;50.890;15.796;2022-11-25T07:11:28;95.10;;;39.50;;
58222;SDS011;44020;50.890;15.796;2022-11-25T07:14:00;80.20;;;38.30;;
58222;SDS011;44020;50.890;15.796;2022-11-25T07:16:29;82.40;;;38.10;;
58222;SDS011;44020;50.890;15.796;2022-11-25T07:19:01;79.00;;;37.60;;
58222;SDS011;44020;50.890;15.796;2022-11-25T07:21:29;91.50;;;45.30;;
58222;SDS011;44020;50.890;15.796;2022-11-25T07:23:58;77.40;;;37.00;;
58222;SDS011;44020;50.890;15.796;2022-11-25T07:26:28;109.50;;;51.20;;
58222;SDS011;44020;50.890;15.796;2022-11-25T07:28:58;92.10;;;46.80;;
58222;SDS011;44020;50.890;15.796;2022-11-25T07:31:28;99.60;;;49.50;;
58222;SDS011;44020;50.890;15.796;2022-11-25T07:34:04;88.40;;;47.00;;
58222;SDS011;44020;50.890;15.796;2022-11-25T07:36:37;74.90;;;37.90;;
58222;SDS011;44020;50.890;15.796;2022-11-25T07:39:06;72.70;;;34.70;;
58222;SDS011;44020;50.890;15.796;2022-11-25T07:41:34;69.90;;;35.30;;
58222;SDS011;44020;50.890;15.796;2022-11-25T07:44:03;82.90;;;38.20;;
58222;SDS011;44020;50.890;15.796;2022-11-25T07:46:32;79.30;;;40.40;;
58222;SDS011;44020;50.890;15.796;2022-11-25T07:49:02;96.70;;;43.80;;
58222;SDS011;44020;50.890;15.796;2022-11-25T07:51:37;104.80;;;46.00;;
58222;SDS011;44020;50.890;15.796;2022-11-25T07:54:10;95.80;;;46.50;;
58222;SDS011;44020;50.890;15.796;2022-11-25T07:56:38;100.20;;;44.80;;
58222;SDS011;44020;50.890;15.796;2022-11-25T07:59:08;86.30;;;40.30;;
58222;SDS011;44020;50.890;15.796;2022-11-25T08:01:39;96.70;;;43.70;;
58222;SDS011;44020;50.890;15.796;2022-11-25T08:04:07;87.40;;;42.10;;
58222;SDS011;44020;50.890;15.796;2022-11-25T08:06:39;89.20;;;41.10;;
58222;SDS011;44020;50.890;15.796;2022-11-25T08:09:13;92.80;;;41.30;;
58222;SDS011;44020;50.890;15.796;2022-11-25T08:11:45;78.30;;;37.50;;
58222;SDS011;44020;50.890;15.796;2022-11-25T08:14:13;86.90;;;41.80;;
58222;SDS011;44020;50.890;15.796;2022-11-25T08:16:40;84.90;;;40.90;;
58222;SDS011;44020;50.890;15.796;2022-11-25T08:19:08;82.30;;;38.90;;
58222;SDS011;44020;50.890;15.796;2022-11-25T08:21:39;70.30;;;34.80;;
58222;SDS011;44020;50.890;15.796;2022-11-25T08:24:06;69.40;;;34.60;;
58222;SDS011;44020;50.890;15.796;2022-11-25T08:26:34;68.30;;;34.10;;
58222;SDS011;44020;50.890;15.796;2022-11-25T08:29:04;84.80;;;39.20;;
58222;SDS011;44020;50.890;15.796;2022-11-25T08:31:33;72.70;;;36.30;;
58222;SDS011;44020;50.890;15.796;2022-11-25T08:34:04;82.80;;;39.50;;
58222;SDS011;44020;50.890;15.796;2022-11-25T08:36:33;78.60;;;39.30;;
58222;SDS011;44020;50.890;15.796;2022-11-25T08:39:04;92.40;;;41.10;;
58222;SDS011;44020;50.890;15.796;2022-11-25T08:41:33;87.80;;;48.10;;
58222;SDS011;44020;50.890;15.796;2022-11-25T08:44:03;82.40;;;41.00;;
58222;SDS011;44020;50.890;15.796;2022-11-25T08:46:33;86.10;;;48.30;;
58222;SDS011;44020;50.890;15.796;2022-11-25T08:49:05;89.50;;;48.60;;
58222;SDS011;44020;50.890;15.796;2022-11-25T08:51:35;80.90;;;45.90;;
58222;SDS011;44020;50.890;15.796;2022-11-25T08:54:04;85.20;;;44.90;;
58222;SDS011;44020;50.890;15.796;2022-11-25T08:56:33;68.50;;;37.80;;
58222;SDS011;44020;50.890;15.796;2022-11-25T08:59:00;62.60;;;34.80;;
58222;SDS011;44020;50.890;15.796;2022-11-25T09:01:27;55.20;;;29.70;;
58222;SDS011;44020;50.890;15.796;2022-11-25T09:03:54;53.60;;;30.40;;
58222;SDS011;44020;50.890;15.796;2022-11-25T09:06:23;62.90;;;32.80;;
58222;SDS011;44020;50.890;15.796;2022-11-25T09:08:58;53.00;;;32.10;;
58222;SDS011;44020;50.890;15.796;2022-11-25T09:11:27;47.30;;;26.40;;
58222;SDS011;44020;50.890;15.796;2022-11-25T09:13:54;48.00;;;27.50;;
58222;SDS011;44020;50.890;15.796;2022-11-25T09:16:21;49.70;;;27.00;;
58222;SDS011;44020;50.890;15.796;2022-11-25T09:18:48;49.90;;;28.40;;
58222;SDS011;44020;50.890;15.796;2022-11-25T09:21:16;55.80;;;32.10;;
58222;SDS011;44020;50.890;15.796;2022-11-25T09:23:44;63.60;;;32.30;;
58222;SDS011;44020;50.890;15.796;2022-11-25T09:26:17;60.10;;;32.60;;
58222;SDS011;44020;50.890;15.796;2022-11-25T09:28:48;51.50;;;27.60;;
58222;SDS011;44020;50.890;15.796;2022-11-25T09:31:15;44.30;;;24.80;;
58222;SDS011;44020;50.890;15.796;2022-11-25T09:33:46;58.10;;;31.50;;
58222;SDS011;44020;50.890;15.796;2022-11-25T09:36:14;41.50;;;24.10;;
58222;SDS011;44020;50.890;15.796;2022-11-25T09:38:42;54.20;;;29.40;;
58222;SDS011;44020;50.890;15.796;2022-11-25T09:55:34;32.90;;;19.70;;
58222;SDS011;44020;50.890;15.796;2022-11-25T10:00:57;35.20;;;19.80;;
58222;SDS011;44020;50.890;15.796;2022-11-25T10:03:38;33.50;;;18.90;;
58222;SDS011;44020;50.890;15.796;2022-11-25T10:08:54;31.60;;;18.80;;
58222;SDS011;44020;50.890;15.796;2022-11-25T10:14:27;31.60;;;18.60;;
58222;SDS011;44020;50.890;15.796;2022-11-25T10:22:26;35.50;;;22.30;;
58222;SDS011;44020;50.890;15.796;2022-11-25T10:25:05;35.80;;;21.10;;
58222;SDS011;44020;50.890;15.796;2022-11-25T10:27:59;38.80;;;22.60;;
58222;SDS011;44020;50.890;15.796;2022-11-25T10:33:20;36.10;;;19.30;;
58222;SDS011;44020;50.890;15.796;2022-11-25T10:40:54;34.80;;;18.50;;
58222;SDS011;44020;50.890;15.796;2022-11-25T10:43:22;28.20;;;16.70;;
58222;SDS011;44020;50.890;15.796;2022-11-25T10:45:57;25.20;;;14.70;;
58222;SDS011;44020;50.890;15.796;2022-11-25T10:49:03;29.80;;;14.30;;
58222;SDS011;44020;50.890;15.796;2022-11-25T10:54:09;25.60;;;16.60;;
58222;SDS011;44020;50.890;15.796;2022-11-25T10:56:44;30.00;;;16.10;;
58222;SDS011;44020;50.890;15.796;2022-11-25T10:59:12;34.50;;;18.50;;
58222;SDS011;44020;50.890;15.796;2022-11-25T11:01:48;36.60;;;18.50;;
58222;SDS011;44020;50.890;15.796;2022-11-25T11:04:19;38.20;;;18.70;;
58222;SDS011;44020;50.890;15.796;2022-11-25T11:06:47;31.10;;;18.80;;
58222;SDS011;44020;50.890;15.796;2022-11-25T11:11:56;26.40;;;15.80;;
58222;SDS011;44020;50.890;15.796;2022-11-25T11:14:33;26.80;;;15.20;;
58222;SDS011;44020;50.890;15.796;2022-11-25T11:17:00;24.50;;;14.10;;
58222;SDS011;44020;50.890;15.796;2022-11-25T11:19:27;19.60;;;12.40;;
58222;SDS011;44020;50.890;15.796;2022-11-25T11:21:57;20.00;;;12.00;;
58222;SDS011;44020;50.890;15.796;2022-11-25T11:24:41;22.00;;;12.20;;
58222;SDS011;44020;50.890;15.796;2022-11-25T11:27:16;21.00;;;11.60;;
58222;SDS011;44020;50.890;15.796;2022-11-25T11:29:47;19.00;;;11.70;;
58222;SDS011;44020;50.890;15.796;2022-11-25T11:32:23;18.70;;;10.90;;
58222;SDS011;44020;50.890;15.796;2022-11-25T11:34:58;15.90;;;9.60;;
58222;SDS011;44020;50.890;15.796;2022-11-25T11:40:16;15.40;;;8.70;;
58222;SDS011;44020;50.890;15.796;2022-11-25T11:48:23;19.00;;;10.30;;
58222;SDS011;44020;50.890;15.796;2022-11-25T11:51:18;16.00;;;9.20;;
58222;SDS011;44020;50.890;15.796;2022-11-25T11:56:48;28.50;;;17.70;;
58222;SDS011;44020;50.890;15.796;2022-11-25T12:02:02;13.60;;;8.00;;
58222;SDS011;44020;50.890;15.796;2022-11-25T12:04:35;13.60;;;8.50;;
58222;SDS011;44020;50.890;15.796;2022-11-25T12:07:08;15.40;;;8.60;;
58222;SDS011;44020;50.890;15.796;2022-11-25T12:10:06;13.60;;;7.80;;
58222;SDS011;44020;50.890;15.796;2022-11-25T12:12:59;18.80;;;9.70;;
58222;SDS011;44020;50.890;15.796;2022-11-25T12:24:39;14.50;;;7.80;;
58222;SDS011;44020;50.890;15.796;2022-11-25T12:27:22;15.90;;;8.40;;
58222;SDS011;44020;50.890;15.796;2022-11-25T12:35:44;12.10;;;5.70;;
58222;SDS011;44020;50.890;15.796;2022-11-25T12:40:58;11.50;;;5.60;;
58222;SDS011;44020;50.890;15.796;2022-11-25T12:48:58;9.20;;;4.80;;
58222;SDS011;44020;50.890;15.796;2022-11-25T12:56:43;13.30;;;6.80;;
58222;SDS011;44020;50.890;15.796;2022-11-25T13:11:06;9.60;;;3.10;;
58222;SDS011;44020;50.890;15.796;2022-11-25T13:16:31;5.10;;;2.30;;
58222;SDS011;44020;50.890;15.796;2022-11-25T13:18:59;12.90;;;6.10;;
58222;SDS011;44020;50.890;15.796;2022-11-25T13:21:26;10.80;;;6.00;;
58222;SDS011;44020;50.890;15.796;2022-11-25T13:23:55;4.60;;;2.20;;
58222;SDS011;44020;50.890;15.796;2022-11-25T13:31:53;13.40;;;7.50;;
58222;SDS011;44020;50.890;15.796;2022-11-25T13:36:55;56.80;;;31.90;;
58222;SDS011;44020;50.890;15.796;2022-11-25T13:39:31;45.90;;;28.00;;
58222;SDS011;44020;50.890;15.796;2022-11-25T13:42:04;21.60;;;12.70;;
58222;SDS011;44020;50.890;15.796;2022-11-25T13:44:52;39.90;;;20.70;;
58222;SDS011;44020;50.890;15.796;2022-11-25T13:47:23;22.50;;;12.50;;
58222;SDS011;44020;50.890;15.796;2022-11-25T13:52:46;33.30;;;10.90;;
58222;SDS011;44020;50.890;15.796;2022-11-25T13:55:33;7.40;;;3.60;;
58222;SDS011;44020;50.890;15.796;2022-11-25T13:58:12;4.20;;;2.30;;
58222;SDS011;44020;50.890;15.796;2022-11-25T14:00:48;20.00;;;15.30;;
58222;SDS011;44020;50.890;15.796;2022-11-25T14:08:39;22.50;;;9.00;;
58222;SDS011;44020;50.890;15.796;2022-11-25T14:16:43;54.60;;;20.70;;
58222;SDS011;44020;50.890;15.796;2022-11-25T14:19:22;15.30;;;5.30;;
58222;SDS011;44020;50.890;15.796;2022-11-25T14:25:18;28.60;;;9.60;;
58222;SDS011;44020;50.890;15.796;2022-11-25T14:27:49;20.20;;;7.00;;
58222;SDS011;44020;50.890;15.796;2022-11-25T14:30:21;16.30;;;5.70;;
58222;SDS011;44020;50.890;15.796;2022-11-25T14:32:58;13.30;;;4.80;;
58222;SDS011;44020;50.890;15.796;2022-11-25T14:35:39;13.90;;;5.30;;
58222;SDS011;44020;50.890;15.796;2022-11-25T14:38:12;10.70;;;3.20;;
58222;SDS011;44020;50.890;15.796;2022-11-25T14:43:33;9.90;;;6.90;;
58222;SDS011;44020;50.890;15.796;2022-11-25T14:51:11;21.80;;;9.90;;
58222;SDS011;44020;50.890;15.796;2022-11-25T14:56:12;29.30;;;14.40;;
58222;SDS011;44020;50.890;15.796;2022-11-25T14:58:41;31.60;;;15.00;;
58222;SDS011;44020;50.890;15.796;2022-11-25T15:01:17;23.50;;;12.30;;
58222;SDS011;44020;50.890;15.796;2022-11-25T15:03:48;25.70;;;13.10;;
58222;SDS011;44020;50.890;15.796;2022-11-25T15:06:16;27.60;;;13.70;;
58222;SDS011;44020;50.890;15.796;2022-11-25T15:08:54;84.00;;;33.20;;
58222;SDS011;44020;50.890;15.796;2022-11-25T15:11:24;52.80;;;25.00;;
58222;SDS011;44020;50.890;15.796;2022-11-25T15:14:03;40.90;;;20.10;;
58222;SDS011;44020;50.890;15.796;2022-11-25T15:16:33;34.50;;;18.20;;
58222;SDS011;44020;50.890;15.796;2022-11-25T15:19:03;36.20;;;18.50;;
58222;SDS011;44020;50.890;15.796;2022-11-25T15:21:38;43.30;;;21.70;;
58222;SDS011;44020;50.890;15.796;2022-11-25T15:24:20;41.90;;;25.80;;
58222;SDS011;44020;50.890;15.796;2022-11-25T15:26:50;34.50;;;18.20;;
58222;SDS011;44020;50.890;15.796;2022-11-25T15:29:19;27.60;;;15.30;;
58222;SDS011;44020;50.890;15.796;2022-11-25T15:31:47;23.60;;;10.70;;
58222;SDS011;44020;50.890;15.796;2022-11-25T15:34:15;27.60;;;13.60;;
58222;SDS011;44020;50.890;15.796;2022-11-25T15:36:44;15.30;;;8.00;;
58222;SDS011;44020;50.890;15.796;2022-11-25T15:44:26;97.80;;;48.70;;
58222;SDS011;44020;50.890;15.796;2022-11-25T15:47:05;170.80;;;84.40;;
58222;SDS011;44020;50.890;15.796;2022-11-25T15:49:45;166.20;;;80.00;;
58222;SDS011;44020;50.890;15.796;2022-11-25T15:52:21;99.00;;;49.60;;
58222;SDS011;44020;50.890;15.796;2022-11-25T15:54:50;96.80;;;47.70;;
58222;SDS011;44020;50.890;15.796;2022-11-25T15:57:19;74.90;;;39.40;;
58222;SDS011;44020;50.890;15.796;2022-11-25T16:10:18;77.30;;;37.20;;
58222;SDS011;44020;50.890;15.796;2022-11-25T16:18:19;51.40;;;26.80;;
58222;SDS011;44020;50.890;15.796;2022-11-25T16:20:54;54.20;;;28.70;;
58222;SDS011;44020;50.890;15.796;2022-11-25T16:23:23;59.80;;;30.50;;
58222;SDS011;44020;50.890;15.796;2022-11-25T16:28:22;23.60;;;14.20;;
58222;SDS011;44020;50.890;15.796;2022-11-25T16:30:50;22.30;;;12.80;;
58222;SDS011;44020;50.890;15.796;2022-11-25T16:33:19;24.00;;;12.90;;
58222;SDS011;44020;50.890;15.796;2022-11-25T16:35:46;39.20;;;18.80;;
58222;SDS011;44020;50.890;15.796;2022-11-25T16:38:13;36.10;;;18.60;;
58222;SDS011;44020;50.890;15.796;2022-11-25T16:40:40;39.50;;;19.10;;
58222;SDS011;44020;50.890;15.796;2022-11-25T16:43:29;30.60;;;15.50;;
58222;SDS011;44020;50.890;15.796;2022-11-25T16:45:55;32.80;;;14.10;;
58222;SDS011;44020;50.890;15.796;2022-11-25T16:48:24;18.30;;;10.50;;
58222;SDS011;44020;50.890;15.796;2022-11-25T16:50:51;21.90;;;11.10;;
58222;SDS011;44020;50.890;15.796;2022-11-25T16:53:18;26.00;;;14.00;;
58222;SDS011;44020;50.890;15.796;2022-11-25T16:55:45;41.70;;;18.80;;
58222;SDS011;44020;50.890;15.796;2022-11-25T17:00:43;41.00;;;20.30;;
58222;SDS011;44020;50.890;15.796;2022-11-25T17:03:16;38.50;;;20.20;;
58222;SDS011;44020;50.890;15.796;2022-11-25T17:05:44;69.30;;;33.40;;
58222;SDS011;44020;50.890;15.796;2022-11-25T17:08:13;42.20;;;20.90;;
58222;SDS011;44020;50.890;15.796;2022-11-25T17:10:40;34.70;;;18.20;;
58222;SDS011;44020;50.890;15.796;2022-11-25T17:13:17;28.70;;;16.10;;
58222;SDS011;44020;50.890;15.796;2022-11-25T17:15:48;27.70;;;12.60;;
58222;SDS011;44020;50.890;15.796;2022-11-25T17:18:16;24.70;;;12.00;;
58222;SDS011;44020;50.890;15.796;2022-11-25T17:20:44;39.60;;;16.20;;
58222;SDS011;44020;50.890;15.796;2022-11-25T17:23:13;68.80;;;26.90;;
58222;SDS011;44020;50.890;15.796;2022-11-25T17:25:44;100.00;;;43.30;;
58222;SDS011;44020;50.890;15.796;2022-11-25T17:28:17;142.70;;;64.40;;
58222;SDS011;44020;50.890;15.796;2022-11-25T17:30:46;183.10;;;86.90;;
58222;SDS011;44020;50.890;15.796;2022-11-25T17:33:15;204.40;;;90.80;;